sensor_id;sensor_type;location;lat;lon;timestamp;temperature;humidity
6738;DHT22;3406;49.902;8.596;2023-05-07T00:00:30;17.00;68.80
6738;DHT22;3406;49.902;8.596;2023-05-07T00:02:59;17.00;68.80
6738;DHT22;3406;49.902;8.596;2023-05-07T00:05:26;17.00;68.80
6738;DHT22;3406;49.902;8.596;2023-05-07T00:07:54;17.10;69.00
6738;DHT22;3406;49.902;8.596;2023-05-07T00:10:21;17.10;69.00
6738;DHT22;3406;49.902;8.596;2023-05-07T00:12:48;17.10;69.00
6738;DHT22;3406;49.902;8.596;2023-05-07T00:15:14;17.10;69.10
6738;DHT22;3406;49.902;8.596;2023-05-07T00:17:41;17.00;69.10
6738;DHT22;3406;49.902;8.596;2023-05-07T00:20:08;17.00;69.30
6738;DHT22;3406;49.902;8.596;2023-05-07T00:22:35;17.00;69.30
6738;DHT22;3406;49.902;8.596;2023-05-07T00:25:04;17.00;69.40
6738;DHT22;3406;49.902;8.596;2023-05-07T00:27:31;17.00;69.60
6738;DHT22;3406;49.902;8.596;2023-05-07T00:29:57;17.00;69.70
6738;DHT22;3406;49.902;8.596;2023-05-07T00:32:24;16.90;69.80
6738;DHT22;3406;49.902;8.596;2023-05-07T00:34:51;16.90;70.00
6738;DHT22;3406;49.902;8.596;2023-05-07T00:37:17;16.90;70.30
6738;DHT22;3406;49.902;8.596;2023-05-07T00:39:44;16.90;70.40
6738;DHT22;3406;49.902;8.596;2023-05-07T00:42:12;16.90;70.60
6738;DHT22;3406;49.902;8.596;2023-05-07T00:44:40;16.80;70.60
6738;DHT22;3406;49.902;8.596;2023-05-07T00:47:07;16.80;70.70
6738;DHT22;3406;49.902;8.596;2023-05-07T00:49:37;16.80;70.80
6738;DHT22;3406;49.902;8.596;2023-05-07T00:52:06;16.80;71.00
6738;DHT22;3406;49.902;8.596;2023-05-07T00:54:33;16.80;71.00
6738;DHT22;3406;49.902;8.596;2023-05-07T00:57:02;16.80;71.80
6738;DHT22;3406;49.902;8.596;2023-05-07T00:59:30;16.80;71.20
6738;DHT22;3406;49.902;8.596;2023-05-07T01:01:58;16.80;71.30
6738;DHT22;3406;49.902;8.596;2023-05-07T01:04:25;16.80;71.40
6738;DHT22;3406;49.902;8.596;2023-05-07T01:06:53;16.80;71.50
6738;DHT22;3406;49.902;8.596;2023-05-07T01:09:21;16.80;71.60
6738;DHT22;3406;49.902;8.596;2023-05-07T01:11:49;16.70;71.60
6738;DHT22;3406;49.902;8.596;2023-05-07T01:14:17;16.70;71.70
6738;DHT22;3406;49.902;8.596;2023-05-07T01:16:45;16.70;72.60
6738;DHT22;3406;49.902;8.596;2023-05-07T01:19:12;16.70;72.00
6738;DHT22;3406;49.902;8.596;2023-05-07T01:21:44;16.60;72.00
6738;DHT22;3406;49.902;8.596;2023-05-07T01:24:12;16.60;72.30
6738;DHT22;3406;49.902;8.596;2023-05-07T01:26:39;16.50;72.40
6738;DHT22;3406;49.902;8.596;2023-05-07T01:29:06;16.50;72.60
6738;DHT22;3406;49.902;8.596;2023-05-07T01:31:33;16.50;72.80
6738;DHT22;3406;49.902;8.596;2023-05-07T01:34:01;16.50;73.00
6738;DHT22;3406;49.902;8.596;2023-05-07T01:36:30;16.50;73.00
6738;DHT22;3406;49.902;8.596;2023-05-07T01:38:58;16.50;73.10
6738;DHT22;3406;49.902;8.596;2023-05-07T01:41:26;16.50;73.10
6738;DHT22;3406;49.902;8.596;2023-05-07T01:43:54;16.40;73.20
6738;DHT22;3406;49.902;8.596;2023-05-07T01:46:21;16.40;73.50
6738;DHT22;3406;49.902;8.596;2023-05-07T01:48:48;16.40;73.80
6738;DHT22;3406;49.902;8.596;2023-05-07T01:51:15;16.30;73.90
6738;DHT22;3406;49.902;8.596;2023-05-07T01:53:42;16.30;74.00
6738;DHT22;3406;49.902;8.596;2023-05-07T01:56:09;16.40;74.20
6738;DHT22;3406;49.902;8.596;2023-05-07T01:58:37;16.40;74.30
6738;DHT22;3406;49.902;8.596;2023-05-07T02:01:03;16.40;74.40
6738;DHT22;3406;49.902;8.596;2023-05-07T02:03:30;16.40;74.50
6738;DHT22;3406;49.902;8.596;2023-05-07T02:05:57;16.40;74.60
6738;DHT22;3406;49.902;8.596;2023-05-07T02:08:23;16.40;74.60
6738;DHT22;3406;49.902;8.596;2023-05-07T02:10:50;16.40;74.70
6738;DHT22;3406;49.902;8.596;2023-05-07T02:13:17;16.40;74.80
6738;DHT22;3406;49.902;8.596;2023-05-07T02:15:46;16.30;74.80
6738;DHT22;3406;49.902;8.596;2023-05-07T02:18:16;16.30;75.00
6738;DHT22;3406;49.902;8.596;2023-05-07T02:20:43;16.30;75.20
6738;DHT22;3406;49.902;8.596;2023-05-07T02:23:09;16.30;75.30
6738;DHT22;3406;49.902;8.596;2023-05-07T02:25:36;16.20;75.30
6738;DHT22;3406;49.902;8.596;2023-05-07T02:28:03;16.20;75.50
6738;DHT22;3406;49.902;8.596;2023-05-07T02:30:30;16.20;75.70
6738;DHT22;3406;49.902;8.596;2023-05-07T02:32:57;16.20;75.90
6738;DHT22;3406;49.902;8.596;2023-05-07T02:35:24;16.10;75.90
6738;DHT22;3406;49.902;8.596;2023-05-07T02:37:51;16.10;76.80
6738;DHT22;3406;49.902;8.596;2023-05-07T02:40:18;16.10;76.20
6738;DHT22;3406;49.902;8.596;2023-05-07T02:42:45;16.10;76.30
6738;DHT22;3406;49.902;8.596;2023-05-07T02:45:11;16.10;76.40
6738;DHT22;3406;49.902;8.596;2023-05-07T02:47:38;16.10;76.60
6738;DHT22;3406;49.902;8.596;2023-05-07T02:50:07;16.10;76.80
6738;DHT22;3406;49.902;8.596;2023-05-07T02:52:34;16.00;76.80
6738;DHT22;3406;49.902;8.596;2023-05-07T02:55:00;16.00;76.90
6738;DHT22;3406;49.902;8.596;2023-05-07T02:57:27;16.00;77.00
6738;DHT22;3406;49.902;8.596;2023-05-07T02:59:54;16.00;77.10
6738;DHT22;3406;49.902;8.596;2023-05-07T03:02:21;16.00;77.30
6738;DHT22;3406;49.902;8.596;2023-05-07T03:04:47;16.00;77.30
6738;DHT22;3406;49.902;8.596;2023-05-07T03:07:15;16.00;77.40
6738;DHT22;3406;49.902;8.596;2023-05-07T03:09:42;16.00;77.50
6738;DHT22;3406;49.902;8.596;2023-05-07T03:12:09;16.00;77.60
6738;DHT22;3406;49.902;8.596;2023-05-07T03:14:35;16.00;77.70
6738;DHT22;3406;49.902;8.596;2023-05-07T03:17:02;16.00;77.80
6738;DHT22;3406;49.902;8.596;2023-05-07T03:19:29;16.00;77.90
6738;DHT22;3406;49.902;8.596;2023-05-07T03:21:56;16.00;77.90
6738;DHT22;3406;49.902;8.596;2023-05-07T03:24:24;16.00;77.90
6738;DHT22;3406;49.902;8.596;2023-05-07T03:26:50;16.00;78.00
6738;DHT22;3406;49.902;8.596;2023-05-07T03:29:17;16.00;78.10
6738;DHT22;3406;49.902;8.596;2023-05-07T03:31:44;16.00;78.20
6738;DHT22;3406;49.902;8.596;2023-05-07T03:34:10;15.90;78.30
6738;DHT22;3406;49.902;8.596;2023-05-07T03:36:37;15.90;78.40
6738;DHT22;3406;49.902;8.596;2023-05-07T03:39:04;15.90;78.50
6738;DHT22;3406;49.902;8.596;2023-05-07T03:41:32;15.90;78.60
6738;DHT22;3406;49.902;8.596;2023-05-07T03:43:59;15.80;78.60
6738;DHT22;3406;49.902;8.596;2023-05-07T03:46:25;15.80;78.80
6738;DHT22;3406;49.902;8.596;2023-05-07T03:48:53;15.80;78.90
6738;DHT22;3406;49.902;8.596;2023-05-07T03:51:20;15.80;79.00
6738;DHT22;3406;49.902;8.596;2023-05-07T03:53:46;15.80;79.00
6738;DHT22;3406;49.902;8.596;2023-05-07T03:56:13;15.70;79.00
6738;DHT22;3406;49.902;8.596;2023-05-07T03:58:41;15.70;79.10
6738;DHT22;3406;49.902;8.596;2023-05-07T04:01:08;15.70;79.30
6738;DHT22;3406;49.902;8.596;2023-05-07T04:03:34;15.70;79.40
6738;DHT22;3406;49.902;8.596;2023-05-07T04:06:01;15.60;79.40
6738;DHT22;3406;49.902;8.596;2023-05-07T04:08:28;15.60;79.60
6738;DHT22;3406;49.902;8.596;2023-05-07T04:10:55;15.60;79.70
6738;DHT22;3406;49.902;8.596;2023-05-07T04:13:22;15.60;79.80
6738;DHT22;3406;49.902;8.596;2023-05-07T04:15:50;15.60;79.80
6738;DHT22;3406;49.902;8.596;2023-05-07T04:18:17;15.60;79.90
6738;DHT22;3406;49.902;8.596;2023-05-07T04:20:44;15.70;80.00
6738;DHT22;3406;49.902;8.596;2023-05-07T04:23:10;15.70;80.00
6738;DHT22;3406;49.902;8.596;2023-05-07T04:25:37;15.70;80.00
6738;DHT22;3406;49.902;8.596;2023-05-07T04:28:04;15.70;80.00
6738;DHT22;3406;49.902;8.596;2023-05-07T04:30:31;15.70;80.00
6738;DHT22;3406;49.902;8.596;2023-05-07T04:32:59;15.80;80.10
6738;DHT22;3406;49.902;8.596;2023-05-07T04:35:26;15.80;80.00
6738;DHT22;3406;49.902;8.596;2023-05-07T04:37:53;15.80;80.00
6738;DHT22;3406;49.902;8.596;2023-05-07T04:40:19;15.80;79.90
6738;DHT22;3406;49.902;8.596;2023-05-07T04:42:46;15.90;79.90
6738;DHT22;3406;49.902;8.596;2023-05-07T04:45:13;15.90;79.90
6738;DHT22;3406;49.902;8.596;2023-05-07T04:47:40;15.90;80.50
6738;DHT22;3406;49.902;8.596;2023-05-07T04:50:09;15.90;79.80
6738;DHT22;3406;49.902;8.596;2023-05-07T04:52:36;15.90;79.80
6738;DHT22;3406;49.902;8.596;2023-05-07T04:55:03;15.90;79.80
6738;DHT22;3406;49.902;8.596;2023-05-07T04:57:30;15.90;79.80
6738;DHT22;3406;49.902;8.596;2023-05-07T04:59:57;15.90;79.80
6738;DHT22;3406;49.902;8.596;2023-05-07T05:02:24;16.00;79.80
6738;DHT22;3406;49.902;8.596;2023-05-07T05:04:50;16.00;79.80
6738;DHT22;3406;49.902;8.596;2023-05-07T05:07:18;16.00;79.70
6738;DHT22;3406;49.902;8.596;2023-05-07T05:09:45;16.00;79.60
6738;DHT22;3406;49.902;8.596;2023-05-07T05:12:11;16.10;79.60
6738;DHT22;3406;49.902;8.596;2023-05-07T05:14:38;16.10;79.50
6738;DHT22;3406;49.902;8.596;2023-05-07T05:17:05;16.20;79.50
6738;DHT22;3406;49.902;8.596;2023-05-07T05:19:31;16.20;79.40
6738;DHT22;3406;49.902;8.596;2023-05-07T05:21:58;16.30;79.40
6738;DHT22;3406;49.902;8.596;2023-05-07T05:24:27;16.30;79.30
6738;DHT22;3406;49.902;8.596;2023-05-07T05:26:54;16.30;79.20
6738;DHT22;3406;49.902;8.596;2023-05-07T05:29:21;16.40;79.20
6738;DHT22;3406;49.902;8.596;2023-05-07T05:31:47;16.40;79.00
6738;DHT22;3406;49.902;8.596;2023-05-07T05:34:14;16.40;78.90
6738;DHT22;3406;49.902;8.596;2023-05-07T05:36:43;16.50;78.90
6738;DHT22;3406;49.902;8.596;2023-05-07T05:39:10;16.60;78.80
6738;DHT22;3406;49.902;8.596;2023-05-07T05:41:37;16.60;78.60
6738;DHT22;3406;49.902;8.596;2023-05-07T05:44:04;16.70;78.50
6738;DHT22;3406;49.902;8.596;2023-05-07T05:46:31;16.70;78.30
6738;DHT22;3406;49.902;8.596;2023-05-07T05:48:57;16.80;78.20
6738;DHT22;3406;49.902;8.596;2023-05-07T05:51:25;16.80;78.00
6738;DHT22;3406;49.902;8.596;2023-05-07T05:53:52;16.90;77.90
6738;DHT22;3406;49.902;8.596;2023-05-07T05:56:19;17.00;77.80
6738;DHT22;3406;49.902;8.596;2023-05-07T05:58:47;17.00;77.50
6738;DHT22;3406;49.902;8.596;2023-05-07T06:01:14;17.00;77.30
6738;DHT22;3406;49.902;8.596;2023-05-07T06:03:41;17.10;77.20
6738;DHT22;3406;49.902;8.596;2023-05-07T06:06:07;17.10;77.00
6738;DHT22;3406;49.902;8.596;2023-05-07T06:08:34;17.20;77.00
6738;DHT22;3406;49.902;8.596;2023-05-07T06:11:01;17.20;76.80
6738;DHT22;3406;49.902;8.596;2023-05-07T06:13:28;17.30;76.70
6738;DHT22;3406;49.902;8.596;2023-05-07T06:15:56;17.30;76.40
6738;DHT22;3406;49.902;8.596;2023-05-07T06:18:23;17.40;76.30
6738;DHT22;3406;49.902;8.596;2023-05-07T06:20:51;17.40;76.20
6738;DHT22;3406;49.902;8.596;2023-05-07T06:23:17;17.40;75.80
6738;DHT22;3406;49.902;8.596;2023-05-07T06:25:47;17.40;75.60
6738;DHT22;3406;49.902;8.596;2023-05-07T06:28:14;17.50;75.60
6738;DHT22;3406;49.902;8.596;2023-05-07T06:30:41;17.50;75.30
6738;DHT22;3406;49.902;8.596;2023-05-07T06:33:09;17.60;75.30
6738;DHT22;3406;49.902;8.596;2023-05-07T06:35:35;17.60;74.80
6738;DHT22;3406;49.902;8.596;2023-05-07T06:38:02;17.60;74.60
6738;DHT22;3406;49.902;8.596;2023-05-07T06:40:29;17.60;74.50
6738;DHT22;3406;49.902;8.596;2023-05-07T06:42:55;17.70;74.40
6738;DHT22;3406;49.902;8.596;2023-05-07T06:45:22;17.70;74.20
6738;DHT22;3406;49.902;8.596;2023-05-07T06:47:49;17.70;73.70
6738;DHT22;3406;49.902;8.596;2023-05-07T06:50:17;17.70;73.80
6738;DHT22;3406;49.902;8.596;2023-05-07T06:52:44;17.80;73.60
6738;DHT22;3406;49.902;8.596;2023-05-07T06:55:10;17.80;73.50
6738;DHT22;3406;49.902;8.596;2023-05-07T06:57:38;17.80;73.20
6738;DHT22;3406;49.902;8.596;2023-05-07T07:00:05;17.80;73.00
6738;DHT22;3406;49.902;8.596;2023-05-07T07:02:34;17.80;72.60
6738;DHT22;3406;49.902;8.596;2023-05-07T07:05:00;17.80;72.70
6738;DHT22;3406;49.902;8.596;2023-05-07T07:07:28;17.80;72.70
6738;DHT22;3406;49.902;8.596;2023-05-07T07:09:55;17.90;72.80
6738;DHT22;3406;49.902;8.596;2023-05-07T07:12:22;17.90;72.60
6738;DHT22;3406;49.902;8.596;2023-05-07T07:14:51;18.00;72.40
6738;DHT22;3406;49.902;8.596;2023-05-07T07:17:17;18.00;72.30
6738;DHT22;3406;49.902;8.596;2023-05-07T07:19:44;18.00;72.20
6738;DHT22;3406;49.902;8.596;2023-05-07T07:22:11;18.00;72.00
6738;DHT22;3406;49.902;8.596;2023-05-07T07:24:39;18.00;72.10
6738;DHT22;3406;49.902;8.596;2023-05-07T07:27:05;18.00;72.20
6738;DHT22;3406;49.902;8.596;2023-05-07T07:29:32;18.20;72.30
6738;DHT22;3406;49.902;8.596;2023-05-07T07:31:59;18.30;72.10
6738;DHT22;3406;49.902;8.596;2023-05-07T07:34:25;18.40;71.90
6738;DHT22;3406;49.902;8.596;2023-05-07T07:36:52;18.40;71.40
6738;DHT22;3406;49.902;8.596;2023-05-07T07:39:19;18.40;71.20
6738;DHT22;3406;49.902;8.596;2023-05-07T07:41:46;18.40;71.20
6738;DHT22;3406;49.902;8.596;2023-05-07T07:44:13;18.50;71.30
6738;DHT22;3406;49.902;8.596;2023-05-07T07:46:40;18.60;71.10
6738;DHT22;3406;49.902;8.596;2023-05-07T07:49:06;18.70;70.90
6738;DHT22;3406;49.902;8.596;2023-05-07T07:51:33;18.70;70.60
6738;DHT22;3406;49.902;8.596;2023-05-07T07:54:00;18.70;70.40
6738;DHT22;3406;49.902;8.596;2023-05-07T07:56:28;18.70;70.50
6738;DHT22;3406;49.902;8.596;2023-05-07T07:58:56;18.80;70.60
6738;DHT22;3406;49.902;8.596;2023-05-07T08:01:22;18.80;70.30
6738;DHT22;3406;49.902;8.596;2023-05-07T08:03:49;18.80;70.00
6738;DHT22;3406;49.902;8.596;2023-05-07T08:06:16;18.80;70.00
6738;DHT22;3406;49.902;8.596;2023-05-07T08:08:42;18.90;70.00
6738;DHT22;3406;49.902;8.596;2023-05-07T08:11:09;18.90;69.80
6738;DHT22;3406;49.902;8.596;2023-05-07T08:13:36;19.00;69.80
6738;DHT22;3406;49.902;8.596;2023-05-07T08:16:05;19.00;69.50
6738;DHT22;3406;49.902;8.596;2023-05-07T08:18:32;19.00;69.40
6738;DHT22;3406;49.902;8.596;2023-05-07T08:20:59;19.00;69.40
6738;DHT22;3406;49.902;8.596;2023-05-07T08:23:25;19.00;69.20
6738;DHT22;3406;49.902;8.596;2023-05-07T08:25:52;19.10;69.20
6738;DHT22;3406;49.902;8.596;2023-05-07T08:28:19;19.20;69.30
6738;DHT22;3406;49.902;8.596;2023-05-07T08:30:46;19.20;68.90
6738;DHT22;3406;49.902;8.596;2023-05-07T08:33:14;19.30;69.00
6738;DHT22;3406;49.902;8.596;2023-05-07T08:35:41;19.40;68.80
6738;DHT22;3406;49.902;8.596;2023-05-07T08:38:08;19.50;68.70
6738;DHT22;3406;49.902;8.596;2023-05-07T08:40:37;19.60;68.50
6738;DHT22;3406;49.902;8.596;2023-05-07T08:43:06;19.70;68.30
6738;DHT22;3406;49.902;8.596;2023-05-07T08:45:34;19.70;68.10
6738;DHT22;3406;49.902;8.596;2023-05-07T08:48:02;19.80;67.70
6738;DHT22;3406;49.902;8.596;2023-05-07T08:50:30;19.80;67.70
6738;DHT22;3406;49.902;8.596;2023-05-07T08:52:57;19.90;67.70
6738;DHT22;3406;49.902;8.596;2023-05-07T08:55:25;19.90;67.30
6738;DHT22;3406;49.902;8.596;2023-05-07T08:57:52;20.00;67.20
6738;DHT22;3406;49.902;8.596;2023-05-07T09:00:19;20.10;66.80
6738;DHT22;3406;49.902;8.596;2023-05-07T09:02:46;20.30;66.60
6738;DHT22;3406;49.902;8.596;2023-05-07T09:05:12;20.30;66.50
6738;DHT22;3406;49.902;8.596;2023-05-07T09:07:40;20.40;65.90
6738;DHT22;3406;49.902;8.596;2023-05-07T09:10:08;20.40;65.40
6738;DHT22;3406;49.902;8.596;2023-05-07T09:12:35;20.40;65.50
6738;DHT22;3406;49.902;8.596;2023-05-07T09:15:01;20.60;65.50
6738;DHT22;3406;49.902;8.596;2023-05-07T09:17:28;20.70;64.80
6738;DHT22;3406;49.902;8.596;2023-05-07T09:19:55;20.70;64.40
6738;DHT22;3406;49.902;8.596;2023-05-07T09:22:21;20.70;64.20
6738;DHT22;3406;49.902;8.596;2023-05-07T09:24:51;20.80;64.00
6738;DHT22;3406;49.902;8.596;2023-05-07T09:27:18;20.80;63.90
6738;DHT22;3406;49.902;8.596;2023-05-07T09:29:45;20.80;63.60
6738;DHT22;3406;49.902;8.596;2023-05-07T09:32:11;20.80;63.50
6738;DHT22;3406;49.902;8.596;2023-05-07T09:34:38;20.80;63.50
6738;DHT22;3406;49.902;8.596;2023-05-07T09:37:06;20.90;63.50
6738;DHT22;3406;49.902;8.596;2023-05-07T09:39:39;21.10;63.40
6738;DHT22;3406;49.902;8.596;2023-05-07T09:42:08;21.30;63.20
6738;DHT22;3406;49.902;8.596;2023-05-07T09:44:34;21.30;62.30
6738;DHT22;3406;49.902;8.596;2023-05-07T09:47:04;21.50;62.30
6738;DHT22;3406;49.902;8.596;2023-05-07T09:49:34;21.60;62.10
6738;DHT22;3406;49.902;8.596;2023-05-07T09:52:02;21.80;61.70
6738;DHT22;3406;49.902;8.596;2023-05-07T09:54:31;21.90;61.40
6738;DHT22;3406;49.902;8.596;2023-05-07T09:56:59;22.00;61.00
6738;DHT22;3406;49.902;8.596;2023-05-07T09:59:30;22.20;61.00
6738;DHT22;3406;49.902;8.596;2023-05-07T10:01:58;22.30;60.60
6738;DHT22;3406;49.902;8.596;2023-05-07T10:04:25;22.50;60.40
6738;DHT22;3406;49.902;8.596;2023-05-07T10:06:52;22.70;60.10
6738;DHT22;3406;49.902;8.596;2023-05-07T10:09:21;22.80;59.90
6738;DHT22;3406;49.902;8.596;2023-05-07T10:11:49;22.80;59.30
6738;DHT22;3406;49.902;8.596;2023-05-07T10:14:16;22.70;59.10
6738;DHT22;3406;49.902;8.596;2023-05-07T10:16:44;22.60;58.80
6738;DHT22;3406;49.902;8.596;2023-05-07T10:19:11;22.40;58.60
6738;DHT22;3406;49.902;8.596;2023-05-07T10:21:40;22.40;58.90
6738;DHT22;3406;49.902;8.596;2023-05-07T10:24:10;22.40;59.10
6738;DHT22;3406;49.902;8.596;2023-05-07T10:26:41;22.40;58.70
6738;DHT22;3406;49.902;8.596;2023-05-07T10:29:14;22.40;58.90
6738;DHT22;3406;49.902;8.596;2023-05-07T10:31:51;22.50;59.00
6738;DHT22;3406;49.902;8.596;2023-05-07T10:34:23;22.60;58.70
6738;DHT22;3406;49.902;8.596;2023-05-07T10:36:51;22.70;58.60
6738;DHT22;3406;49.902;8.596;2023-05-07T10:39:19;22.70;58.90
6738;DHT22;3406;49.902;8.596;2023-05-07T10:41:46;22.80;58.50
6738;DHT22;3406;49.902;8.596;2023-05-07T10:44:25;22.90;58.20
6738;DHT22;3406;49.902;8.596;2023-05-07T10:47:05;23.10;58.20
6738;DHT22;3406;49.902;8.596;2023-05-07T10:49:34;23.30;58.60
6738;DHT22;3406;49.902;8.596;2023-05-07T10:52:15;23.50;57.50
6738;DHT22;3406;49.902;8.596;2023-05-07T10:54:42;23.70;57.20
6738;DHT22;3406;49.902;8.596;2023-05-07T10:57:36;23.70;57.00
6738;DHT22;3406;49.902;8.596;2023-05-07T11:00:04;23.80;57.00
6738;DHT22;3406;49.902;8.596;2023-05-07T11:03:07;23.90;56.80
6738;DHT22;3406;49.902;8.596;2023-05-07T11:05:35;24.00;56.30
6738;DHT22;3406;49.902;8.596;2023-05-07T11:08:02;24.10;56.10
6738;DHT22;3406;49.902;8.596;2023-05-07T11:10:51;24.20;56.00
6738;DHT22;3406;49.902;8.596;2023-05-07T11:16:16;24.20;55.50
6738;DHT22;3406;49.902;8.596;2023-05-07T11:18:49;24.30;55.40
6738;DHT22;3406;49.902;8.596;2023-05-07T11:21:32;24.40;55.20
6738;DHT22;3406;49.902;8.596;2023-05-07T11:24:00;24.50;55.00
6738;DHT22;3406;49.902;8.596;2023-05-07T11:26:28;24.50;54.20
6738;DHT22;3406;49.902;8.596;2023-05-07T11:28:57;24.50;54.30
6738;DHT22;3406;49.902;8.596;2023-05-07T11:31:26;24.60;54.30
6738;DHT22;3406;49.902;8.596;2023-05-07T11:33:55;24.70;54.00
6738;DHT22;3406;49.902;8.596;2023-05-07T11:36:23;24.80;53.90
6738;DHT22;3406;49.902;8.596;2023-05-07T11:38:50;24.90;53.90
6738;DHT22;3406;49.902;8.596;2023-05-07T11:41:17;25.10;53.80
6738;DHT22;3406;49.902;8.596;2023-05-07T11:43:55;25.20;53.40
6738;DHT22;3406;49.902;8.596;2023-05-07T11:46:22;25.10;52.90
6738;DHT22;3406;49.902;8.596;2023-05-07T11:48:49;25.10;53.00
6738;DHT22;3406;49.902;8.596;2023-05-07T11:51:20;25.10;52.90
6738;DHT22;3406;49.902;8.596;2023-05-07T11:53:47;25.10;53.00
6738;DHT22;3406;49.902;8.596;2023-05-07T11:56:16;25.10;52.60
6738;DHT22;3406;49.902;8.596;2023-05-07T11:58:44;25.10;52.50
6738;DHT22;3406;49.902;8.596;2023-05-07T12:01:12;25.10;51.90
6738;DHT22;3406;49.902;8.596;2023-05-07T12:03:41;25.10;51.30
6738;DHT22;3406;49.902;8.596;2023-05-07T12:06:09;25.10;51.40
6738;DHT22;3406;49.902;8.596;2023-05-07T12:08:38;25.20;50.90
6738;DHT22;3406;49.902;8.596;2023-05-07T12:11:07;25.30;50.90
6738;DHT22;3406;49.902;8.596;2023-05-07T12:13:37;25.40;50.70
6738;DHT22;3406;49.902;8.596;2023-05-07T12:16:05;25.50;50.70
6738;DHT22;3406;49.902;8.596;2023-05-07T12:18:32;25.50;50.50
6738;DHT22;3406;49.902;8.596;2023-05-07T12:21:00;25.60;50.20
6738;DHT22;3406;49.902;8.596;2023-05-07T12:23:27;25.60;50.00
6738;DHT22;3406;49.902;8.596;2023-05-07T12:25:56;25.70;49.60
6738;DHT22;3406;49.902;8.596;2023-05-07T12:28:23;25.80;49.50
6738;DHT22;3406;49.902;8.596;2023-05-07T12:30:51;25.80;49.00
6738;DHT22;3406;49.902;8.596;2023-05-07T12:33:25;25.90;49.10
6738;DHT22;3406;49.902;8.596;2023-05-07T12:35:54;25.90;48.90
6738;DHT22;3406;49.902;8.596;2023-05-07T12:38:22;25.90;48.50
6738;DHT22;3406;49.902;8.596;2023-05-07T12:40:50;25.90;48.00
6738;DHT22;3406;49.902;8.596;2023-05-07T12:43:19;25.90;47.70
6738;DHT22;3406;49.902;8.596;2023-05-07T12:45:48;26.00;48.30
6738;DHT22;3406;49.902;8.596;2023-05-07T12:48:15;26.00;47.20
6738;DHT22;3406;49.902;8.596;2023-05-07T12:50:42;26.00;47.00
6738;DHT22;3406;49.902;8.596;2023-05-07T12:53:10;26.10;46.90
6738;DHT22;3406;49.902;8.596;2023-05-07T12:55:41;26.10;46.80
6738;DHT22;3406;49.902;8.596;2023-05-07T12:58:14;26.10;46.70
6738;DHT22;3406;49.902;8.596;2023-05-07T13:00:44;26.10;46.30
6738;DHT22;3406;49.902;8.596;2023-05-07T13:03:11;26.10;46.20
6738;DHT22;3406;49.902;8.596;2023-05-07T13:05:38;26.10;46.40
6738;DHT22;3406;49.902;8.596;2023-05-07T13:08:05;26.10;46.30
6738;DHT22;3406;49.902;8.596;2023-05-07T13:10:32;26.20;46.50
6738;DHT22;3406;49.902;8.596;2023-05-07T13:12:59;26.20;46.40
6738;DHT22;3406;49.902;8.596;2023-05-07T13:15:26;26.20;46.30
6738;DHT22;3406;49.902;8.596;2023-05-07T13:17:54;26.30;46.40
6738;DHT22;3406;49.902;8.596;2023-05-07T13:20:21;26.30;46.60
6738;DHT22;3406;49.902;8.596;2023-05-07T13:22:48;26.40;46.10
6738;DHT22;3406;49.902;8.596;2023-05-07T13:25:15;26.50;46.10
6738;DHT22;3406;49.902;8.596;2023-05-07T13:27:42;26.50;45.60
6738;DHT22;3406;49.902;8.596;2023-05-07T13:30:08;26.30;45.30
6738;DHT22;3406;49.902;8.596;2023-05-07T13:32:35;26.30;45.60
6738;DHT22;3406;49.902;8.596;2023-05-07T13:35:04;26.30;45.60
6738;DHT22;3406;49.902;8.596;2023-05-07T13:37:30;26.40;45.70
6738;DHT22;3406;49.902;8.596;2023-05-07T13:39:57;26.50;45.50
6738;DHT22;3406;49.902;8.596;2023-05-07T13:42:24;26.40;45.50
6738;DHT22;3406;49.902;8.596;2023-05-07T13:44:50;26.40;45.10
6738;DHT22;3406;49.902;8.596;2023-05-07T13:47:17;26.30;45.30
6738;DHT22;3406;49.902;8.596;2023-05-07T13:49:43;26.20;45.30
6738;DHT22;3406;49.902;8.596;2023-05-07T13:52:11;26.20;45.50
6738;DHT22;3406;49.902;8.596;2023-05-07T13:54:38;26.20;45.70
6738;DHT22;3406;49.902;8.596;2023-05-07T13:57:05;26.20;45.80
6738;DHT22;3406;49.902;8.596;2023-05-07T13:59:32;26.30;45.90
6738;DHT22;3406;49.902;8.596;2023-05-07T14:01:59;26.30;45.20
6738;DHT22;3406;49.902;8.596;2023-05-07T14:04:25;26.30;45.30
6738;DHT22;3406;49.902;8.596;2023-05-07T14:06:52;26.30;45.40
6738;DHT22;3406;49.902;8.596;2023-05-07T14:09:20;26.30;45.50
6738;DHT22;3406;49.902;8.596;2023-05-07T14:11:47;26.40;45.50
6738;DHT22;3406;49.902;8.596;2023-05-07T14:14:16;26.50;45.20
6738;DHT22;3406;49.902;8.596;2023-05-07T14:16:43;26.50;45.20
6738;DHT22;3406;49.902;8.596;2023-05-07T14:19:10;26.50;45.20
6738;DHT22;3406;49.902;8.596;2023-05-07T14:21:36;26.50;45.10
6738;DHT22;3406;49.902;8.596;2023-05-07T14:24:03;26.60;45.10
6738;DHT22;3406;49.902;8.596;2023-05-07T14:26:32;26.50;45.10
6738;DHT22;3406;49.902;8.596;2023-05-07T14:28:58;26.40;45.00
6738;DHT22;3406;49.902;8.596;2023-05-07T14:31:25;26.30;45.00
6738;DHT22;3406;49.902;8.596;2023-05-07T14:33:52;26.30;45.20
6738;DHT22;3406;49.902;8.596;2023-05-07T14:36:19;26.30;45.20
6738;DHT22;3406;49.902;8.596;2023-05-07T14:38:48;26.30;45.20
6738;DHT22;3406;49.902;8.596;2023-05-07T14:41:15;26.20;45.30
6738;DHT22;3406;49.902;8.596;2023-05-07T14:43:43;26.10;45.10
6738;DHT22;3406;49.902;8.596;2023-05-07T14:46:15;26.00;45.10
6738;DHT22;3406;49.902;8.596;2023-05-07T14:48:42;25.90;45.10
6738;DHT22;3406;49.902;8.596;2023-05-07T14:51:09;25.90;45.40
6738;DHT22;3406;49.902;8.596;2023-05-07T14:53:36;25.90;45.50
6738;DHT22;3406;49.902;8.596;2023-05-07T14:56:03;25.80;45.50
6738;DHT22;3406;49.902;8.596;2023-05-07T14:58:30;25.80;45.60
6738;DHT22;3406;49.902;8.596;2023-05-07T15:00:58;25.80;45.70
6738;DHT22;3406;49.902;8.596;2023-05-07T15:03:26;25.70;45.90
6738;DHT22;3406;49.902;8.596;2023-05-07T15:05:53;25.60;46.00
6738;DHT22;3406;49.902;8.596;2023-05-07T15:08:20;25.60;46.10
6738;DHT22;3406;49.902;8.596;2023-05-07T15:10:47;25.50;46.20
6738;DHT22;3406;49.902;8.596;2023-05-07T15:13:13;25.50;46.40
6738;DHT22;3406;49.902;8.596;2023-05-07T15:15:40;25.40;46.30
6738;DHT22;3406;49.902;8.596;2023-05-07T15:18:08;25.30;46.20
6738;DHT22;3406;49.902;8.596;2023-05-07T15:20:36;25.20;46.30
6738;DHT22;3406;49.902;8.596;2023-05-07T15:23:03;25.10;46.40
6738;DHT22;3406;49.902;8.596;2023-05-07T15:25:30;25.00;46.20
6738;DHT22;3406;49.902;8.596;2023-05-07T15:27:59;25.00;46.20
6738;DHT22;3406;49.902;8.596;2023-05-07T15:30:25;24.90;46.30
6738;DHT22;3406;49.902;8.596;2023-05-07T15:32:52;24.80;46.40
6738;DHT22;3406;49.902;8.596;2023-05-07T15:35:20;24.70;46.50
6738;DHT22;3406;49.902;8.596;2023-05-07T15:37:47;24.60;46.70
6738;DHT22;3406;49.902;8.596;2023-05-07T15:40:14;24.60;47.00
6738;DHT22;3406;49.902;8.596;2023-05-07T15:42:41;24.50;47.10
6738;DHT22;3406;49.902;8.596;2023-05-07T15:45:09;24.40;47.20
6738;DHT22;3406;49.902;8.596;2023-05-07T15:47:36;24.40;47.40
6738;DHT22;3406;49.902;8.596;2023-05-07T15:50:03;24.40;47.50
6738;DHT22;3406;49.902;8.596;2023-05-07T15:52:31;24.30;47.60
6738;DHT22;3406;49.902;8.596;2023-05-07T15:54:58;24.30;47.70
6738;DHT22;3406;49.902;8.596;2023-05-07T15:57:25;24.30;47.90
6738;DHT22;3406;49.902;8.596;2023-05-07T15:59:52;24.30;48.00
6738;DHT22;3406;49.902;8.596;2023-05-07T16:02:19;24.20;48.20
6738;DHT22;3406;49.902;8.596;2023-05-07T16:04:45;24.10;49.40
6738;DHT22;3406;49.902;8.596;2023-05-07T16:07:12;23.80;51.10